createdAt,value
2023-02-02T00:02:04.676Z,1.67
2023-02-02T00:04:35.950Z,0.90
2023-02-02T00:07:05.310Z,1.13
2023-02-02T00:09:33.083Z,1.40
2023-02-02T00:12:01.396Z,0.70
2023-02-02T00:14:28.480Z,1.55
2023-02-02T00:16:56.553Z,1.48
2023-02-02T00:19:30.367Z,1.10
2023-02-02T00:21:57.850Z,1.63
2023-02-02T00:24:24.759Z,2.60
2023-02-02T00:26:54.038Z,1.20
2023-02-02T00:29:23.768Z,0.95
2023-02-02T00:31:50.730Z,1.38
2023-02-02T00:34:17.938Z,0.90
2023-02-02T00:36:47.727Z,2.45
2023-02-02T00:39:18.717Z,0.77
2023-02-02T00:41:46.149Z,1.52
2023-02-02T00:44:31.671Z,1.52
2023-02-02T00:46:59.809Z,0.98
2023-02-02T00:49:26.427Z,0.95
2023-02-02T00:51:53.188Z,1.10
2023-02-02T00:54:19.897Z,1.00
2023-02-02T00:56:46.613Z,0.63
2023-02-02T00:59:13.623Z,1.30
2023-02-02T01:01:40.439Z,1.13
2023-02-02T01:04:07.390Z,0.90
2023-02-02T01:06:34.466Z,0.70
2023-02-02T01:09:01.912Z,0.70
2023-02-02T01:11:28.815Z,0.70
2023-02-02T01:13:55.525Z,2.25
2023-02-02T01:16:22.749Z,2.20
2023-02-02T01:18:50.960Z,1.00
2023-02-02T01:21:18.159Z,0.70
2023-02-02T01:23:45.145Z,0.68
2023-02-02T01:26:12.952Z,0.65
2023-02-02T01:28:40.291Z,1.80
2023-02-02T01:31:12.247Z,1.30
2023-02-02T01:33:39.974Z,1.00
2023-02-02T01:36:20.493Z,0.88
2023-02-02T01:38:48.162Z,0.77
2023-02-02T01:41:18.343Z,0.60
2023-02-02T01:43:46.042Z,0.60
2023-02-02T01:46:14.872Z,0.55
2023-02-02T01:48:46.390Z,0.50
2023-02-02T01:51:17.427Z,0.30
2023-02-02T01:53:46.178Z,0.22
2023-02-02T01:56:17.513Z,0.50
2023-02-02T01:58:45.239Z,0.35
2023-02-02T02:01:13.374Z,0.30
2023-02-02T02:03:40.704Z,0.77
2023-02-02T02:06:15.754Z,1.00
2023-02-02T02:09:05.157Z,0.77
2023-02-02T02:11:34.790Z,0.80
2023-02-02T02:14:24.381Z,0.80
2023-02-02T02:16:54.416Z,0.50
2023-02-02T02:20:11.357Z,0.60
2023-02-02T02:23:32.067Z,0.55
2023-02-02T02:26:26.680Z,0.57
2023-02-02T02:29:17.618Z,0.57
2023-02-02T02:32:38.333Z,0.50
2023-02-02T02:35:43.925Z,0.50
2023-02-02T02:38:45.142Z,1.27
2023-02-02T02:41:29.288Z,1.15
2023-02-02T02:44:01.518Z,1.60
2023-02-02T02:46:28.715Z,1.50
2023-02-02T02:49:01.661Z,1.20
2023-02-02T02:51:45.255Z,0.95
2023-02-02T02:54:29.867Z,0.88
2023-02-02T02:57:25.143Z,1.00
2023-02-02T03:00:16.084Z,0.52
2023-02-02T03:02:50.630Z,0.70
2023-02-02T03:05:39.143Z,1.00
2023-02-02T03:08:22.835Z,0.60
2023-02-02T03:10:49.721Z,0.73
2023-02-02T03:13:17.235Z,1.00
2023-02-02T03:15:45.744Z,0.90
2023-02-02T03:18:18.998Z,0.60
2023-02-02T03:20:47.168Z,0.60
2023-02-02T03:23:14.742Z,0.75
2023-02-02T03:25:41.944Z,0.60
2023-02-02T03:28:09.082Z,0.57
2023-02-02T03:30:37.370Z,0.47
2023-02-02T03:33:05.556Z,0.55
2023-02-02T03:35:32.514Z,0.47
2023-02-02T03:37:59.174Z,0.40
2023-02-02T03:40:27.520Z,0.38
2023-02-02T03:42:54.340Z,0.30
2023-02-02T03:45:21.147Z,0.20
2023-02-02T03:47:48.178Z,0.47
2023-02-02T03:50:15.078Z,0.50
2023-02-02T03:52:41.665Z,0.30
2023-02-02T03:55:08.677Z,0.30
2023-02-02T03:57:35.237Z,0.20
2023-02-02T04:00:02.221Z,0.20
2023-02-02T04:02:38.887Z,0.20
2023-02-02T04:05:06.050Z,0.30
2023-02-02T04:07:32.704Z,0.22
2023-02-02T04:09:59.356Z,0.22
2023-02-02T04:12:26.007Z,0.40
2023-02-02T04:14:53.042Z,0.20
2023-02-02T04:17:19.652Z,0.20
2023-02-02T04:19:46.359Z,0.40
2023-02-02T04:22:12.946Z,0.20
2023-02-02T04:24:39.655Z,0.30
2023-02-02T04:27:06.259Z,0.30
2023-02-02T04:29:32.938Z,0.30
2023-02-02T04:31:59.671Z,0.38
2023-02-02T04:34:26.381Z,0.50
2023-02-02T04:36:52.957Z,0.20
2023-02-02T04:39:19.711Z,0.30
2023-02-02T04:41:46.326Z,0.40
2023-02-02T04:44:16.584Z,0.20
2023-02-02T04:46:44.176Z,0.40
2023-02-02T04:49:11.666Z,0.40
2023-02-02T04:51:39.741Z,0.80
2023-02-02T04:54:07.207Z,0.75
2023-02-02T04:56:34.797Z,0.28
2023-02-02T04:59:01.653Z,0.30
2023-02-02T05:01:30.348Z,0.20
2023-02-02T05:03:57.900Z,0.30
2023-02-02T05:06:25.286Z,0.30
2023-02-02T05:08:52.009Z,0.30
2023-02-02T05:11:21.603Z,0.30
2023-02-02T05:13:50.006Z,0.30
2023-02-02T05:16:17.476Z,0.20
2023-02-02T05:18:52.343Z,0.17
2023-02-02T05:21:19.714Z,0.20
2023-02-02T05:23:46.758Z,0.10
2023-02-02T05:26:20.844Z,0.20
2023-02-02T05:28:48.413Z,0.20
2023-02-02T05:31:15.202Z,0.20
2023-02-02T05:33:42.545Z,0.45
2023-02-02T05:36:09.971Z,0.50
2023-02-02T05:38:36.783Z,0.30
2023-02-02T05:41:03.979Z,0.30
2023-02-02T05:43:32.059Z,0.20
2023-02-02T05:45:59.128Z,0.20
2023-02-02T05:48:26.342Z,0.13
2023-02-02T05:51:05.479Z,0.20
2023-02-02T05:53:33.844Z,0.10
2023-02-02T05:56:00.535Z,0.20
2023-02-02T05:58:28.140Z,0.17
2023-02-02T06:00:56.729Z,0.20
2023-02-02T06:03:24.202Z,0.10
2023-02-02T06:05:50.863Z,0.10
2023-02-02T06:08:17.577Z,0.20
2023-02-02T06:10:44.612Z,0.20
2023-02-02T06:13:11.385Z,0.15
2023-02-02T06:15:38.271Z,0.38
2023-02-02T06:18:06.883Z,0.40
2023-02-02T06:20:33.888Z,0.25
2023-02-02T06:23:00.660Z,0.30
2023-02-02T06:25:27.731Z,0.50
2023-02-02T06:27:58.470Z,0.20
2023-02-02T06:30:26.086Z,0.10
2023-02-02T06:32:53.055Z,0.10
2023-02-02T06:35:20.021Z,0.20
2023-02-02T06:37:46.744Z,0.10
2023-02-02T06:40:13.826Z,0.10
2023-02-02T06:42:40.952Z,0.10
2023-02-02T06:45:08.200Z,0.10
2023-02-02T06:47:34.884Z,0.20
2023-02-02T06:50:01.646Z,0.43
2023-02-02T06:52:28.358Z,0.30
2023-02-02T06:54:55.165Z,0.40
2023-02-02T06:57:21.785Z,0.40
2023-02-02T06:59:48.462Z,0.38
2023-02-02T07:02:15.095Z,0.20
2023-02-02T07:04:41.791Z,0.32
2023-02-02T07:07:08.594Z,0.30
2023-02-02T07:09:35.888Z,0.30
2023-02-02T07:12:02.515Z,0.43
2023-02-02T07:14:29.261Z,0.30
2023-02-02T07:16:55.860Z,0.35
2023-02-02T07:19:22.711Z,0.50
2023-02-02T07:21:49.592Z,0.30
2023-02-02T07:24:16.382Z,0.70
2023-02-02T07:26:43.047Z,0.50
2023-02-02T07:29:14.075Z,0.80
2023-02-02T07:31:40.786Z,0.60
2023-02-02T07:34:07.466Z,0.45
2023-02-02T07:36:34.440Z,0.43
2023-02-02T07:39:04.377Z,0.85
2023-02-02T07:41:31.650Z,1.02
2023-02-02T07:43:58.343Z,0.45
2023-02-02T07:46:25.247Z,0.95
2023-02-02T07:48:55.608Z,0.70
2023-02-02T07:51:23.424Z,0.50
2023-02-02T07:53:52.903Z,0.75
2023-02-02T07:56:25.103Z,0.52
2023-02-02T07:58:53.214Z,0.50
2023-02-02T08:01:22.796Z,0.60
2023-02-02T08:03:50.638Z,0.60
2023-02-02T08:06:25.979Z,0.57
2023-02-02T08:08:52.779Z,0.55
2023-02-02T08:11:21.836Z,0.95
2023-02-02T08:13:53.136Z,0.90
2023-02-02T08:16:20.850Z,0.70
2023-02-02T08:18:47.672Z,0.95
2023-02-02T08:21:15.287Z,0.60
2023-02-02T08:23:42.637Z,0.50
2023-02-02T08:26:22.466Z,0.60
2023-02-02T08:28:52.871Z,0.60
2023-02-02T08:31:43.181Z,0.70
2023-02-02T08:34:11.152Z,0.70
2023-02-02T08:36:38.216Z,0.70
2023-02-02T08:39:11.488Z,0.60
2023-02-02T08:41:38.936Z,0.50
2023-02-02T08:44:07.814Z,0.82
2023-02-02T08:46:38.053Z,0.75
2023-02-02T08:49:04.693Z,0.80
2023-02-02T08:51:31.433Z,0.60
2023-02-02T08:53:58.084Z,0.68
2023-02-02T08:56:24.804Z,0.85
2023-02-02T08:58:53.520Z,0.80
2023-02-02T09:01:25.895Z,0.63
2023-02-02T09:03:59.083Z,0.88
2023-02-02T09:06:36.730Z,0.70
2023-02-02T09:09:05.347Z,0.70
2023-02-02T09:11:31.980Z,1.00
2023-02-02T09:14:00.613Z,0.60
2023-02-02T09:16:27.779Z,1.08
2023-02-02T09:18:55.774Z,0.70
2023-02-02T09:21:22.853Z,0.88
2023-02-02T09:23:50.569Z,0.70
2023-02-02T09:26:18.942Z,0.70
2023-02-02T09:28:54.577Z,0.88
2023-02-02T09:33:48.486Z,0.60
2023-02-02T09:36:18.349Z,0.63
2023-02-02T09:38:45.046Z,0.60
2023-02-02T09:41:27.029Z,0.60
2023-02-02T09:44:08.830Z,0.70
2023-02-02T09:46:41.618Z,0.60
2023-02-02T09:49:13.374Z,0.55
2023-02-02T09:51:44.575Z,0.75
2023-02-02T09:54:14.515Z,0.95
2023-02-02T09:56:44.658Z,0.63
2023-02-02T09:59:24.521Z,0.70
2023-02-02T10:01:56.394Z,0.60
2023-02-02T10:04:36.276Z,0.88
2023-02-02T10:07:10.572Z,0.63
2023-02-02T10:09:48.021Z,0.70
2023-02-02T10:12:32.947Z,0.70
2023-02-02T10:15:35.127Z,0.50
2023-02-02T10:18:20.637Z,0.40
2023-02-02T10:21:00.980Z,0.40
2023-02-02T10:23:38.725Z,0.40
2023-02-02T10:26:08.463Z,0.68
2023-02-02T10:29:03.489Z,0.70
2023-02-02T10:31:48.016Z,0.57
2023-02-02T10:34:22.638Z,1.52
2023-02-02T10:37:18.613Z,0.63
2023-02-02T10:39:57.672Z,0.40
2023-02-02T10:42:33.454Z,0.28
2023-02-02T10:45:12.140Z,0.70
2023-02-02T10:47:38.971Z,0.30
2023-02-02T10:50:21.901Z,0.30
2023-02-02T10:52:59.428Z,0.50
2023-02-02T10:55:33.173Z,0.40
2023-02-02T10:58:11.990Z,0.30
2023-02-02T11:00:52.787Z,0.30
2023-02-02T11:03:23.073Z,0.35
2023-02-02T11:06:08.602Z,0.32
2023-02-02T11:08:35.296Z,0.30
2023-02-02T11:11:19.942Z,0.40
2023-02-02T11:13:50.486Z,0.40
2023-02-02T11:16:17.241Z,0.30
2023-02-02T11:18:45.576Z,0.40
2023-02-02T11:21:21.341Z,0.47
2023-02-02T11:24:19.320Z,0.60
2023-02-02T11:26:56.103Z,0.40
2023-02-02T11:29:37.419Z,0.30
2023-02-02T11:32:24.415Z,0.45
2023-02-02T11:35:16.456Z,0.50
2023-02-02T11:37:54.019Z,0.40
2023-02-02T11:40:28.593Z,0.50
2023-02-02T11:43:06.258Z,0.30
2023-02-02T11:45:39.828Z,0.30
2023-02-02T11:48:17.255Z,0.47
2023-02-02T11:50:53.821Z,0.35
2023-02-02T11:53:33.059Z,0.30
2023-02-02T11:56:06.016Z,0.60
2023-02-02T11:58:55.516Z,0.40
2023-02-02T12:01:28.819Z,0.63
2023-02-02T12:03:59.222Z,0.50
2023-02-02T12:06:34.133Z,0.40
2023-02-02T12:09:04.828Z,0.30
2023-02-02T12:11:54.167Z,0.20
2023-02-02T12:14:56.075Z,0.32
2023-02-02T12:17:35.264Z,0.52
2023-02-02T12:20:14.719Z,0.43
2023-02-02T12:22:52.819Z,0.40
2023-02-02T12:25:53.424Z,0.40
2023-02-02T12:28:39.980Z,0.88
2023-02-02T12:31:21.321Z,0.75
2023-02-02T12:34:18.905Z,0.45
2023-02-02T12:37:07.130Z,0.50
2023-02-02T12:40:00.593Z,0.30
2023-02-02T12:42:52.147Z,0.32
2023-02-02T12:46:01.317Z,0.32
2023-02-02T12:48:43.264Z,0.40
2023-02-02T12:51:27.958Z,0.30
2023-02-02T12:54:34.851Z,0.43
2023-02-02T12:57:11.313Z,0.25
2023-02-02T13:00:05.811Z,0.20
2023-02-02T13:02:38.705Z,0.40
2023-02-02T13:05:34.286Z,0.52
2023-02-02T13:08:12.631Z,0.70
2023-02-02T13:10:52.294Z,0.30
2023-02-02T13:13:25.353Z,1.08
2023-02-02T13:15:57.423Z,0.38
2023-02-02T13:18:29.612Z,0.60
2023-02-02T13:21:01.957Z,0.45
2023-02-02T13:23:32.768Z,0.40
2023-02-02T13:26:18.261Z,0.35
2023-02-02T13:29:01.371Z,0.50
2023-02-02T13:31:42.099Z,0.30
2023-02-02T13:34:31.179Z,0.30
2023-02-02T13:37:04.873Z,0.40
2023-02-02T13:39:45.834Z,0.50
2023-02-02T13:42:32.293Z,0.55
2023-02-02T13:45:07.097Z,0.43
2023-02-02T13:47:43.698Z,0.35
2023-02-02T13:50:17.312Z,0.30
2023-02-02T13:52:46.922Z,0.50
2023-02-02T13:55:42.165Z,0.45
2023-02-02T13:58:56.624Z,0.25
2023-02-02T14:01:25.665Z,0.52
2023-02-02T14:03:56.329Z,0.40
2023-02-02T14:06:25.813Z,0.30
2023-02-02T14:09:00.135Z,0.40
2023-02-02T14:11:40.526Z,0.40
2023-02-02T14:14:31.995Z,0.40
2023-02-02T14:17:06.124Z,0.20
2023-02-02T14:19:35.564Z,0.40
2023-02-02T14:22:05.217Z,0.40
2023-02-02T14:24:34.847Z,0.40
2023-02-02T14:27:07.372Z,0.35
2023-02-02T14:29:36.698Z,0.32
2023-02-02T14:32:23.152Z,0.47
2023-02-02T14:34:52.153Z,0.30
2023-02-02T14:37:24.521Z,0.47
2023-02-02T14:39:53.927Z,0.68
2023-02-02T14:42:57.789Z,0.30
2023-02-02T14:45:33.232Z,0.25
2023-02-02T14:48:09.106Z,0.40
2023-02-02T14:50:38.782Z,0.40
2023-02-02T14:53:28.511Z,0.22
2023-02-02T14:56:03.007Z,0.47
2023-02-02T14:58:43.990Z,0.57
2023-02-02T15:01:23.658Z,0.20
2023-02-02T15:04:17.082Z,0.60
2023-02-02T15:06:44.246Z,0.50
2023-02-02T15:09:36.606Z,0.65
2023-02-02T15:12:03.347Z,0.85
2023-02-02T15:14:35.720Z,0.70
2023-02-02T15:17:07.128Z,0.73
2023-02-02T15:19:42.673Z,1.02
2023-02-02T15:24:49.374Z,0.77
2023-02-02T15:27:18.853Z,0.75
2023-02-02T15:29:50.801Z,0.80
2023-02-02T15:32:22.349Z,0.70
2023-02-02T15:34:53.309Z,0.52
2023-02-02T15:37:24.506Z,0.75
2023-02-02T15:39:53.030Z,0.60
2023-02-02T15:42:43.171Z,1.08
2023-02-02T15:45:28.303Z,0.63
2023-02-02T15:47:57.671Z,1.48
2023-02-02T15:50:24.891Z,1.00
2023-02-02T15:52:52.878Z,1.40
2023-02-02T15:55:34.126Z,1.00
2023-02-02T15:58:21.490Z,1.95
2023-02-02T16:00:56.395Z,1.40
2023-02-02T16:04:04.954Z,2.20
2023-02-02T16:06:34.834Z,1.85
2023-02-02T16:09:05.107Z,1.52
2023-02-02T16:11:31.989Z,1.50
2023-02-02T16:14:01.571Z,1.27
2023-02-02T16:16:38.260Z,1.10
2023-02-02T16:19:15.943Z,1.30
2023-02-02T16:21:58.372Z,1.02
2023-02-02T16:24:28.989Z,1.17
2023-02-02T16:26:59.311Z,1.00
2023-02-02T16:29:28.190Z,1.40
2023-02-02T16:31:56.355Z,1.65
2023-02-02T16:34:41.593Z,1.20
2023-02-02T16:37:29.835Z,0.98
2023-02-02T16:40:17.607Z,0.98
2023-02-02T16:42:44.438Z,1.30
2023-02-02T16:45:34.857Z,1.40
2023-02-02T16:48:29.793Z,1.27
2023-02-02T16:51:15.206Z,1.60
2023-02-02T16:53:46.141Z,1.42
2023-02-02T16:56:47.583Z,2.33
2023-02-02T16:59:25.321Z,2.10
2023-02-02T17:01:59.785Z,1.98
2023-02-02T17:04:27.838Z,2.08
2023-02-02T17:06:57.251Z,2.70
2023-02-02T17:09:34.848Z,4.15
2023-02-02T17:12:31.983Z,3.55
2023-02-02T17:15:04.730Z,3.78
2023-02-02T17:17:31.646Z,2.92
2023-02-02T17:19:58.233Z,3.17
2023-02-02T17:22:28.455Z,3.97
2023-02-02T17:24:55.247Z,3.97
2023-02-02T17:27:27.738Z,3.72
2023-02-02T17:29:56.084Z,1.67
2023-02-02T17:32:24.769Z,2.22
2023-02-02T17:34:51.401Z,1.60
2023-02-02T17:37:18.669Z,1.67
2023-02-02T17:39:45.488Z,1.80
2023-02-02T17:42:26.216Z,2.53
2023-02-02T17:44:53.017Z,1.80
2023-02-02T17:47:20.058Z,2.35
2023-02-02T17:49:46.863Z,2.88
2023-02-02T17:52:13.723Z,3.92
2023-02-02T17:54:40.489Z,4.07
2023-02-02T17:57:07.285Z,3.67
2023-02-02T17:59:33.974Z,2.88
2023-02-02T18:02:01.264Z,3.60
2023-02-02T18:04:28.217Z,3.55
2023-02-02T18:06:55.298Z,3.50
2023-02-02T18:09:22.311Z,3.70
2023-02-02T18:11:49.945Z,4.03
2023-02-02T18:14:16.617Z,3.17
2023-02-02T18:16:43.281Z,2.92
2023-02-02T18:19:10.425Z,3.33
2023-02-02T18:21:37.554Z,3.28
2023-02-02T18:24:04.563Z,3.20
2023-02-02T18:26:32.691Z,2.45
2023-02-02T18:28:59.536Z,1.20
2023-02-02T18:31:27.096Z,0.60
2023-02-02T18:33:54.552Z,0.20
2023-02-02T18:36:23.626Z,0.30
2023-02-02T18:38:51.339Z,0.35
2023-02-02T18:41:19.687Z,1.17
2023-02-02T18:43:46.377Z,0.70
2023-02-02T18:46:15.574Z,0.35
2023-02-02T18:48:43.241Z,0.32
2023-02-02T18:51:18.724Z,0.30
2023-02-02T18:56:14.557Z,0.80
2023-02-02T18:58:41.816Z,0.30
2023-02-02T19:01:10.540Z,0.82
2023-02-02T19:03:37.598Z,0.50
2023-02-02T19:06:24.191Z,0.38
2023-02-02T19:08:51.019Z,0.30
2023-02-02T19:11:20.078Z,0.50
2023-02-02T19:13:47.439Z,0.60
2023-02-02T19:16:30.078Z,0.47
2023-02-02T19:19:00.497Z,0.32
2023-02-02T19:21:30.488Z,0.40
2023-02-02T19:23:57.167Z,0.30
2023-02-02T19:26:28.169Z,0.40
2023-02-02T19:29:02.784Z,0.50
2023-02-02T19:31:29.815Z,0.50
2023-02-02T19:33:57.640Z,0.60
2023-02-02T19:36:27.774Z,0.45
2023-02-02T19:39:17.942Z,0.40
2023-02-02T19:41:44.719Z,0.80
2023-02-02T19:44:21.129Z,0.70
2023-02-02T19:46:53.456Z,1.17
2023-02-02T19:49:27.219Z,0.90
2023-02-02T19:51:56.057Z,0.85
2023-02-02T19:54:42.241Z,1.33
2023-02-02T19:57:36.414Z,3.03
2023-02-02T20:00:22.846Z,2.97
2023-02-02T20:03:36.080Z,3.13
2023-02-02T20:06:04.714Z,4.28
2023-02-02T20:08:42.357Z,5.65
2023-02-02T20:11:32.422Z,3.53
2023-02-02T20:14:03.047Z,4.00
2023-02-02T20:16:42.151Z,3.55
2023-02-02T20:19:24.262Z,3.78
2023-02-02T20:21:52.762Z,3.85
2023-02-02T20:24:24.328Z,3.88
2023-02-02T20:26:53.280Z,2.85
2023-02-02T20:29:38.067Z,3.50
2023-02-02T20:32:08.501Z,3.90
2023-02-02T20:34:43.507Z,3.65
2023-02-02T20:37:31.550Z,3.78
2023-02-02T20:40:23.351Z,3.53
2023-02-02T20:42:50.539Z,3.20
2023-02-02T20:45:18.047Z,2.50
2023-02-02T20:47:45.726Z,2.90
2023-02-02T20:50:15.684Z,3.00
2023-02-02T20:52:42.518Z,4.03
2023-02-02T20:55:10.065Z,2.22
2023-02-02T20:57:38.629Z,1.80
2023-02-02T21:00:07.468Z,2.05
2023-02-02T21:02:34.428Z,1.90
2023-02-02T21:05:01.548Z,1.60
2023-02-02T21:07:28.394Z,1.90
2023-02-02T21:09:55.609Z,1.80
2023-02-02T21:12:25.620Z,2.58
2023-02-02T21:14:53.879Z,3.10
2023-02-02T21:17:20.721Z,3.35
2023-02-02T21:19:47.519Z,3.13
2023-02-02T21:22:14.517Z,2.22
2023-02-02T21:24:42.575Z,3.00
2023-02-02T21:27:10.058Z,3.17
2023-02-02T21:29:37.105Z,2.90
2023-02-02T21:32:04.125Z,2.50
2023-02-02T21:34:32.240Z,3.00
2023-02-02T21:36:59.457Z,2.58
2023-02-02T21:39:30.671Z,3.45
2023-02-02T21:42:09.671Z,2.63
2023-02-02T21:44:54.143Z,3.30
2023-02-02T21:47:51.262Z,3.03
2023-02-02T21:50:29.139Z,2.78
2023-02-02T21:53:14.867Z,2.63
2023-02-02T21:55:41.866Z,1.95
2023-02-02T21:58:17.335Z,2.65
2023-02-02T22:03:37.147Z,2.40
2023-02-02T22:06:23.100Z,2.45
2023-02-02T22:08:50.921Z,2.70
2023-02-02T22:11:23.920Z,1.80
2023-02-02T22:13:51.674Z,2.10
2023-02-02T22:16:20.593Z,1.90
2023-02-02T22:18:47.828Z,2.10
2023-02-02T22:21:18.826Z,1.42
2023-02-02T22:23:47.391Z,1.50
2023-02-02T22:26:29.349Z,1.85
2023-02-02T22:28:56.822Z,2.10
2023-02-02T22:31:23.603Z,1.58
2023-02-02T22:33:50.341Z,1.58
2023-02-02T22:36:17.208Z,2.00
2023-02-02T22:38:44.342Z,1.80
2023-02-02T22:41:11.116Z,2.10
2023-02-02T22:43:38.030Z,2.08
2023-02-02T22:46:05.770Z,2.25
2023-02-02T22:48:33.095Z,2.30
2023-02-02T22:50:59.767Z,2.38
2023-02-02T22:53:26.619Z,2.65
2023-02-02T22:55:56.659Z,1.70
2023-02-02T22:58:25.102Z,2.50
2023-02-02T23:00:52.315Z,1.75
2023-02-02T23:03:19.345Z,1.20
2023-02-02T23:05:45.994Z,1.30
2023-02-02T23:08:12.763Z,1.17
2023-02-02T23:10:39.672Z,1.42
2023-02-02T23:13:06.797Z,1.02
2023-02-02T23:15:34.726Z,1.00
2023-02-02T23:18:02.016Z,0.80
2023-02-02T23:20:28.856Z,0.82
2023-02-02T23:22:55.703Z,0.90
2023-02-02T23:25:22.414Z,0.95
2023-02-02T23:27:49.338Z,0.80
2023-02-02T23:30:17.489Z,0.80
2023-02-02T23:32:44.184Z,0.88
2023-02-02T23:35:11.185Z,0.70
2023-02-02T23:37:38.710Z,0.68
2023-02-02T23:40:06.112Z,0.77
2023-02-02T23:42:33.658Z,1.00
2023-02-02T23:45:00.337Z,1.00
2023-02-02T23:47:26.999Z,0.70
2023-02-02T23:49:53.774Z,0.80
2023-02-02T23:52:20.766Z,0.90
2023-02-02T23:54:47.848Z,1.50
2023-02-02T23:57:14.791Z,1.30
2023-02-02T23:59:41.432Z,1.70
